sensor_id;sensor_type;location;lat;lon;timestamp;P1;durP1;ratioP1;P2;durP2;ratioP2
79009;SDS011;73031;44.726;37.760;2024-02-23T00:00:18;28.23;;;13.40;;
79009;SDS011;73031;44.726;37.760;2024-02-23T00:01:19;37.88;;;13.43;;
79009;SDS011;73031;44.726;37.760;2024-02-23T00:02:21;36.88;;;13.38;;
79009;SDS011;73031;44.726;37.760;2024-02-23T00:03:22;30.08;;;13.95;;
79009;SDS011;73031;44.726;37.760;2024-02-23T00:04:23;33.85;;;13.50;;
79009;SDS011;73031;44.726;37.760;2024-02-23T00:05:24;32.13;;;14.13;;
79009;SDS011;73031;44.726;37.760;2024-02-23T00:06:26;31.98;;;13.05;;
79009;SDS011;73031;44.726;37.760;2024-02-23T00:07:28;31.80;;;13.95;;
79009;SDS011;73031;44.726;37.760;2024-02-23T00:08:29;32.95;;;13.73;;
79009;SDS011;73031;44.726;37.760;2024-02-23T00:09:31;31.48;;;13.57;;
79009;SDS011;73031;44.726;37.760;2024-02-23T00:10:32;36.70;;;14.57;;
79009;SDS011;73031;44.726;37.760;2024-02-23T00:11:33;32.38;;;13.90;;
79009;SDS011;73031;44.726;37.760;2024-02-23T00:12:40;36.03;;;14.23;;
79009;SDS011;73031;44.726;37.760;2024-02-23T00:13:41;35.00;;;14.45;;
79009;SDS011;73031;44.726;37.760;2024-02-23T00:14:43;31.70;;;14.15;;
79009;SDS011;73031;44.726;37.760;2024-02-23T00:15:44;36.47;;;14.32;;
79009;SDS011;73031;44.726;37.760;2024-02-23T00:16:45;30.08;;;14.15;;
79009;SDS011;73031;44.726;37.760;2024-02-23T00:17:47;30.88;;;14.10;;
79009;SDS011;73031;44.726;37.760;2024-02-23T00:18:48;36.13;;;14.38;;
79009;SDS011;73031;44.726;37.760;2024-02-23T00:19:49;30.52;;;13.75;;
79009;SDS011;73031;44.726;37.760;2024-02-23T00:20:53;39.22;;;13.73;;
79009;SDS011;73031;44.726;37.760;2024-02-23T00:21:54;40.30;;;14.27;;
79009;SDS011;73031;44.726;37.760;2024-02-23T00:22:56;36.85;;;13.60;;
79009;SDS011;73031;44.726;37.760;2024-02-23T00:23:57;35.10;;;15.07;;
79009;SDS011;73031;44.726;37.760;2024-02-23T00:24:58;34.28;;;14.52;;
79009;SDS011;73031;44.726;37.760;2024-02-23T00:25:59;31.10;;;14.15;;
79009;SDS011;73031;44.726;37.760;2024-02-23T00:27:01;44.90;;;14.52;;
79009;SDS011;73031;44.726;37.760;2024-02-23T00:28:02;35.78;;;15.00;;
79009;SDS011;73031;44.726;37.760;2024-02-23T00:29:04;33.70;;;14.25;;
79009;SDS011;73031;44.726;37.760;2024-02-23T00:30:05;44.33;;;15.00;;
79009;SDS011;73031;44.726;37.760;2024-02-23T00:31:07;34.15;;;15.77;;
79009;SDS011;73031;44.726;37.760;2024-02-23T00:32:08;43.38;;;14.30;;
79009;SDS011;73031;44.726;37.760;2024-02-23T00:33:10;36.90;;;15.00;;
79009;SDS011;73031;44.726;37.760;2024-02-23T00:34:11;41.72;;;14.77;;
79009;SDS011;73031;44.726;37.760;2024-02-23T00:35:14;41.28;;;14.93;;
79009;SDS011;73031;44.726;37.760;2024-02-23T00:36:15;29.05;;;13.60;;
79009;SDS011;73031;44.726;37.760;2024-02-23T00:37:16;41.47;;;16.10;;
79009;SDS011;73031;44.726;37.760;2024-02-23T00:38:18;37.10;;;15.80;;
79009;SDS011;73031;44.726;37.760;2024-02-23T00:39:19;38.05;;;14.63;;
79009;SDS011;73031;44.726;37.760;2024-02-23T00:40:20;38.80;;;14.60;;
79009;SDS011;73031;44.726;37.760;2024-02-23T00:41:24;41.63;;;15.80;;
79009;SDS011;73031;44.726;37.760;2024-02-23T00:42:25;35.35;;;14.57;;
79009;SDS011;73031;44.726;37.760;2024-02-23T00:43:26;33.60;;;14.52;;
79009;SDS011;73031;44.726;37.760;2024-02-23T00:44:30;39.13;;;15.60;;
79009;SDS011;73031;44.726;37.760;2024-02-23T00:45:31;35.50;;;14.65;;
79009;SDS011;73031;44.726;37.760;2024-02-23T00:46:32;42.35;;;15.57;;
79009;SDS011;73031;44.726;37.760;2024-02-23T00:47:34;48.17;;;15.48;;
79009;SDS011;73031;44.726;37.760;2024-02-23T00:48:36;38.53;;;14.98;;
79009;SDS011;73031;44.726;37.760;2024-02-23T00:49:37;37.38;;;13.15;;
79009;SDS011;73031;44.726;37.760;2024-02-23T00:50:38;36.20;;;13.45;;
79009;SDS011;73031;44.726;37.760;2024-02-23T00:51:40;40.08;;;13.27;;
79009;SDS011;73031;44.726;37.760;2024-02-23T00:52:41;33.33;;;12.32;;
79009;SDS011;73031;44.726;37.760;2024-02-23T00:53:42;37.00;;;13.80;;
79009;SDS011;73031;44.726;37.760;2024-02-23T00:54:44;32.33;;;14.38;;
79009;SDS011;73031;44.726;37.760;2024-02-23T00:55:45;30.58;;;12.88;;
79009;SDS011;73031;44.726;37.760;2024-02-23T00:56:47;36.90;;;14.48;;
79009;SDS011;73031;44.726;37.760;2024-02-23T00:57:48;32.00;;;14.00;;
79009;SDS011;73031;44.726;37.760;2024-02-23T00:58:49;36.95;;;13.77;;
79009;SDS011;73031;44.726;37.760;2024-02-23T00:59:50;35.63;;;13.57;;
79009;SDS011;73031;44.726;37.760;2024-02-23T01:00:52;36.78;;;14.73;;
79009;SDS011;73031;44.726;37.760;2024-02-23T01:01:54;41.08;;;13.45;;
79009;SDS011;73031;44.726;37.760;2024-02-23T01:02:56;30.38;;;13.50;;
79009;SDS011;73031;44.726;37.760;2024-02-23T01:04:00;32.08;;;13.88;;
79009;SDS011;73031;44.726;37.760;2024-02-23T01:05:01;33.75;;;13.23;;
79009;SDS011;73031;44.726;37.760;2024-02-23T01:06:03;27.77;;;13.43;;
79009;SDS011;73031;44.726;37.760;2024-02-23T01:07:04;34.55;;;13.80;;
79009;SDS011;73031;44.726;37.760;2024-02-23T01:08:06;34.45;;;13.43;;
79009;SDS011;73031;44.726;37.760;2024-02-23T01:09:07;31.30;;;14.02;;
79009;SDS011;73031;44.726;37.760;2024-02-23T01:10:09;35.90;;;13.57;;
79009;SDS011;73031;44.726;37.760;2024-02-23T01:11:10;34.67;;;13.82;;
79009;SDS011;73031;44.726;37.760;2024-02-23T01:12:11;30.55;;;12.13;;
79009;SDS011;73031;44.726;37.760;2024-02-23T01:13:13;31.92;;;12.90;;
79009;SDS011;73031;44.726;37.760;2024-02-23T01:14:14;28.10;;;12.07;;
79009;SDS011;73031;44.726;37.760;2024-02-23T01:15:15;34.00;;;12.68;;
79009;SDS011;73031;44.726;37.760;2024-02-23T01:16:17;31.75;;;13.70;;
79009;SDS011;73031;44.726;37.760;2024-02-23T01:17:18;27.95;;;12.48;;
79009;SDS011;73031;44.726;37.760;2024-02-23T01:18:19;31.95;;;13.23;;
79009;SDS011;73031;44.726;37.760;2024-02-23T01:19:21;31.60;;;13.48;;
79009;SDS011;73031;44.726;37.760;2024-02-23T01:20:22;27.35;;;13.50;;
79009;SDS011;73031;44.726;37.760;2024-02-23T01:21:24;31.23;;;13.02;;
79009;SDS011;73031;44.726;37.760;2024-02-23T01:22:25;28.60;;;12.32;;
79009;SDS011;73031;44.726;37.760;2024-02-23T01:23:26;25.88;;;12.27;;
79009;SDS011;73031;44.726;37.760;2024-02-23T01:24:28;30.90;;;12.50;;
79009;SDS011;73031;44.726;37.760;2024-02-23T01:25:30;27.45;;;12.98;;
79009;SDS011;73031;44.726;37.760;2024-02-23T01:26:31;27.23;;;12.88;;
79009;SDS011;73031;44.726;37.760;2024-02-23T01:27:32;23.52;;;11.93;;
79009;SDS011;73031;44.726;37.760;2024-02-23T01:28:34;29.90;;;12.10;;
79009;SDS011;73031;44.726;37.760;2024-02-23T01:29:35;28.60;;;12.02;;
79009;SDS011;73031;44.726;37.760;2024-02-23T01:30:36;26.65;;;12.43;;
79009;SDS011;73031;44.726;37.760;2024-02-23T01:31:37;28.33;;;13.20;;
79009;SDS011;73031;44.726;37.760;2024-02-23T01:32:39;25.60;;;11.77;;
79009;SDS011;73031;44.726;37.760;2024-02-23T01:33:40;23.58;;;12.05;;
79009;SDS011;73031;44.726;37.760;2024-02-23T01:34:41;22.20;;;11.05;;
79009;SDS011;73031;44.726;37.760;2024-02-23T01:35:43;24.83;;;12.05;;
79009;SDS011;73031;44.726;37.760;2024-02-23T01:36:44;27.50;;;14.48;;
79009;SDS011;73031;44.726;37.760;2024-02-23T01:37:45;25.05;;;13.10;;
79009;SDS011;73031;44.726;37.760;2024-02-23T01:38:47;39.05;;;14.63;;
79009;SDS011;73031;44.726;37.760;2024-02-23T01:39:51;30.73;;;13.90;;
79009;SDS011;73031;44.726;37.760;2024-02-23T01:40:53;31.20;;;13.48;;
79009;SDS011;73031;44.726;37.760;2024-02-23T01:41:54;33.08;;;15.35;;
79009;SDS011;73031;44.726;37.760;2024-02-23T01:43:02;29.42;;;13.68;;
79009;SDS011;73031;44.726;37.760;2024-02-23T01:44:04;37.58;;;14.57;;
79009;SDS011;73031;44.726;37.760;2024-02-23T01:45:06;28.80;;;13.90;;
79009;SDS011;73031;44.726;37.760;2024-02-23T01:46:08;38.10;;;15.15;;
79009;SDS011;73031;44.726;37.760;2024-02-23T01:47:14;36.13;;;13.13;;
79009;SDS011;73031;44.726;37.760;2024-02-23T01:48:16;33.95;;;13.75;;
79009;SDS011;73031;44.726;37.760;2024-02-23T01:49:18;33.40;;;14.02;;
79009;SDS011;73031;44.726;37.760;2024-02-23T01:50:21;34.38;;;14.52;;
79009;SDS011;73031;44.726;37.760;2024-02-23T01:51:23;27.20;;;13.10;;
79009;SDS011;73031;44.726;37.760;2024-02-23T01:52:25;34.90;;;14.05;;
79009;SDS011;73031;44.726;37.760;2024-02-23T01:53:29;36.25;;;14.45;;
79009;SDS011;73031;44.726;37.760;2024-02-23T01:54:31;35.10;;;13.45;;
79009;SDS011;73031;44.726;37.760;2024-02-23T01:55:33;27.85;;;13.00;;
79009;SDS011;73031;44.726;37.760;2024-02-23T01:56:35;35.00;;;13.50;;
79009;SDS011;73031;44.726;37.760;2024-02-23T01:57:37;39.50;;;15.30;;
79009;SDS011;73031;44.726;37.760;2024-02-23T01:58:39;32.92;;;14.35;;
79009;SDS011;73031;44.726;37.760;2024-02-23T01:59:41;36.83;;;14.60;;
79009;SDS011;73031;44.726;37.760;2024-02-23T02:00:43;32.85;;;14.40;;
79009;SDS011;73031;44.726;37.760;2024-02-23T02:01:45;38.45;;;15.00;;
79009;SDS011;73031;44.726;37.760;2024-02-23T02:02:47;42.78;;;16.45;;
79009;SDS011;73031;44.726;37.760;2024-02-23T02:03:49;39.17;;;14.88;;
79009;SDS011;73031;44.726;37.760;2024-02-23T02:04:50;34.08;;;15.60;;
79009;SDS011;73031;44.726;37.760;2024-02-23T02:05:52;36.20;;;15.10;;
79009;SDS011;73031;44.726;37.760;2024-02-23T02:06:56;36.80;;;14.73;;
79009;SDS011;73031;44.726;37.760;2024-02-23T02:07:59;35.13;;;13.93;;
79009;SDS011;73031;44.726;37.760;2024-02-23T02:09:01;39.38;;;15.23;;
79009;SDS011;73031;44.726;37.760;2024-02-23T02:10:03;40.22;;;15.13;;
79009;SDS011;73031;44.726;37.760;2024-02-23T02:11:07;36.75;;;16.17;;
79009;SDS011;73031;44.726;37.760;2024-02-23T02:12:08;39.65;;;15.77;;
79009;SDS011;73031;44.726;37.760;2024-02-23T02:13:10;39.80;;;15.80;;
79009;SDS011;73031;44.726;37.760;2024-02-23T02:14:11;42.28;;;16.92;;
79009;SDS011;73031;44.726;37.760;2024-02-23T02:15:12;38.70;;;15.95;;
79009;SDS011;73031;44.726;37.760;2024-02-23T02:16:13;38.58;;;14.13;;
79009;SDS011;73031;44.726;37.760;2024-02-23T02:17:15;30.35;;;14.95;;
79009;SDS011;73031;44.726;37.760;2024-02-23T02:18:16;40.05;;;16.08;;
79009;SDS011;73031;44.726;37.760;2024-02-23T02:19:17;33.58;;;15.85;;
79009;SDS011;73031;44.726;37.760;2024-02-23T02:20:19;35.60;;;16.00;;
79009;SDS011;73031;44.726;37.760;2024-02-23T02:21:25;33.92;;;15.27;;
79009;SDS011;73031;44.726;37.760;2024-02-23T02:22:28;32.72;;;15.25;;
79009;SDS011;73031;44.726;37.760;2024-02-23T02:23:30;38.88;;;15.52;;
79009;SDS011;73031;44.726;37.760;2024-02-23T02:24:31;32.75;;;14.98;;
79009;SDS011;73031;44.726;37.760;2024-02-23T02:25:33;32.42;;;15.48;;
79009;SDS011;73031;44.726;37.760;2024-02-23T02:26:35;32.03;;;15.75;;
79009;SDS011;73031;44.726;37.760;2024-02-23T02:27:38;33.83;;;15.10;;
79009;SDS011;73031;44.726;37.760;2024-02-23T02:28:39;32.75;;;15.70;;
79009;SDS011;73031;44.726;37.760;2024-02-23T02:29:40;32.35;;;16.05;;
79009;SDS011;73031;44.726;37.760;2024-02-23T02:30:41;45.33;;;16.25;;
79009;SDS011;73031;44.726;37.760;2024-02-23T02:31:43;31.63;;;16.52;;
79009;SDS011;73031;44.726;37.760;2024-02-23T02:32:44;36.40;;;16.33;;
79009;SDS011;73031;44.726;37.760;2024-02-23T02:33:45;36.13;;;15.80;;
79009;SDS011;73031;44.726;37.760;2024-02-23T02:34:46;36.60;;;16.00;;
79009;SDS011;73031;44.726;37.760;2024-02-23T02:35:48;42.60;;;16.95;;
79009;SDS011;73031;44.726;37.760;2024-02-23T02:36:50;33.58;;;15.77;;
79009;SDS011;73031;44.726;37.760;2024-02-23T02:37:52;31.73;;;15.20;;
79009;SDS011;73031;44.726;37.760;2024-02-23T02:38:53;31.40;;;15.77;;
79009;SDS011;73031;44.726;37.760;2024-02-23T02:39:54;40.85;;;16.90;;
79009;SDS011;73031;44.726;37.760;2024-02-23T02:40:56;38.00;;;16.27;;
79009;SDS011;73031;44.726;37.760;2024-02-23T02:41:58;42.25;;;16.83;;
79009;SDS011;73031;44.726;37.760;2024-02-23T02:42:59;43.47;;;16.83;;
79009;SDS011;73031;44.726;37.760;2024-02-23T02:44:00;38.15;;;16.85;;
79009;SDS011;73031;44.726;37.760;2024-02-23T02:45:02;33.47;;;15.20;;
79009;SDS011;73031;44.726;37.760;2024-02-23T02:46:03;34.15;;;16.73;;
79009;SDS011;73031;44.726;37.760;2024-02-23T02:47:05;34.22;;;16.20;;
79009;SDS011;73031;44.726;37.760;2024-02-23T02:48:06;30.30;;;15.65;;
79009;SDS011;73031;44.726;37.760;2024-02-23T02:49:08;36.45;;;16.65;;
79009;SDS011;73031;44.726;37.760;2024-02-23T02:50:09;34.88;;;16.45;;
79009;SDS011;73031;44.726;37.760;2024-02-23T02:51:11;40.45;;;15.90;;
79009;SDS011;73031;44.726;37.760;2024-02-23T02:52:12;33.05;;;15.68;;
79009;SDS011;73031;44.726;37.760;2024-02-23T02:53:13;32.13;;;15.90;;
79009;SDS011;73031;44.726;37.760;2024-02-23T02:54:15;39.08;;;16.20;;
79009;SDS011;73031;44.726;37.760;2024-02-23T02:55:17;43.08;;;16.42;;
79009;SDS011;73031;44.726;37.760;2024-02-23T02:56:19;43.53;;;16.38;;
79009;SDS011;73031;44.726;37.760;2024-02-23T02:57:20;36.67;;;16.02;;
79009;SDS011;73031;44.726;37.760;2024-02-23T02:58:22;38.92;;;17.02;;
79009;SDS011;73031;44.726;37.760;2024-02-23T02:59:23;34.05;;;15.32;;
79009;SDS011;73031;44.726;37.760;2024-02-23T03:00:24;36.20;;;15.18;;
79009;SDS011;73031;44.726;37.760;2024-02-23T03:01:26;38.28;;;15.45;;
79009;SDS011;73031;44.726;37.760;2024-02-23T03:02:27;32.53;;;13.30;;
79009;SDS011;73031;44.726;37.760;2024-02-23T03:03:29;31.20;;;14.32;;
79009;SDS011;73031;44.726;37.760;2024-02-23T03:04:30;31.45;;;14.65;;
79009;SDS011;73031;44.726;37.760;2024-02-23T03:05:31;29.98;;;14.60;;
79009;SDS011;73031;44.726;37.760;2024-02-23T03:06:33;28.55;;;14.02;;
79009;SDS011;73031;44.726;37.760;2024-02-23T03:07:34;29.60;;;14.18;;
79009;SDS011;73031;44.726;37.760;2024-02-23T03:08:35;29.33;;;13.48;;
79009;SDS011;73031;44.726;37.760;2024-02-23T03:09:37;29.05;;;13.98;;
79009;SDS011;73031;44.726;37.760;2024-02-23T03:10:38;38.05;;;14.88;;
79009;SDS011;73031;44.726;37.760;2024-02-23T03:11:39;27.88;;;14.27;;
79009;SDS011;73031;44.726;37.760;2024-02-23T03:12:41;29.20;;;13.85;;
79009;SDS011;73031;44.726;37.760;2024-02-23T03:13:42;28.27;;;14.13;;
79009;SDS011;73031;44.726;37.760;2024-02-23T03:14:44;29.77;;;14.15;;
79009;SDS011;73031;44.726;37.760;2024-02-23T03:15:45;26.17;;;13.77;;
79009;SDS011;73031;44.726;37.760;2024-02-23T03:16:46;29.42;;;13.68;;
79009;SDS011;73031;44.726;37.760;2024-02-23T03:17:50;25.40;;;13.13;;
79009;SDS011;73031;44.726;37.760;2024-02-23T03:18:51;24.48;;;12.13;;
79009;SDS011;73031;44.726;37.760;2024-02-23T03:19:55;24.60;;;12.25;;
79009;SDS011;73031;44.726;37.760;2024-02-23T03:20:56;24.75;;;11.82;;
79009;SDS011;73031;44.726;37.760;2024-02-23T03:21:58;25.85;;;12.55;;
79009;SDS011;73031;44.726;37.760;2024-02-23T03:22:59;28.48;;;12.30;;
79009;SDS011;73031;44.726;37.760;2024-02-23T03:24:02;24.35;;;11.88;;
79009;SDS011;73031;44.726;37.760;2024-02-23T03:25:04;27.55;;;12.60;;
79009;SDS011;73031;44.726;37.760;2024-02-23T03:26:09;26.38;;;12.07;;
79009;SDS011;73031;44.726;37.760;2024-02-23T03:27:10;24.98;;;11.75;;
79009;SDS011;73031;44.726;37.760;2024-02-23T03:28:11;24.90;;;12.77;;
79009;SDS011;73031;44.726;37.760;2024-02-23T03:29:12;22.90;;;12.50;;
79009;SDS011;73031;44.726;37.760;2024-02-23T03:30:14;23.42;;;11.65;;
79009;SDS011;73031;44.726;37.760;2024-02-23T03:31:16;25.05;;;11.93;;
79009;SDS011;73031;44.726;37.760;2024-02-23T03:32:18;23.50;;;12.13;;
79009;SDS011;73031;44.726;37.760;2024-02-23T03:33:20;23.88;;;11.77;;
79009;SDS011;73031;44.726;37.760;2024-02-23T03:34:21;26.42;;;12.38;;
79009;SDS011;73031;44.726;37.760;2024-02-23T03:35:22;23.85;;;11.32;;
79009;SDS011;73031;44.726;37.760;2024-02-23T03:36:24;25.75;;;12.05;;
79009;SDS011;73031;44.726;37.760;2024-02-23T03:37:25;20.23;;;11.90;;
79009;SDS011;73031;44.726;37.760;2024-02-23T03:38:26;25.00;;;13.32;;
79009;SDS011;73031;44.726;37.760;2024-02-23T03:39:29;24.02;;;12.43;;
79009;SDS011;73031;44.726;37.760;2024-02-23T03:40:31;25.42;;;12.68;;
79009;SDS011;73031;44.726;37.760;2024-02-23T03:41:32;25.95;;;13.10;;
79009;SDS011;73031;44.726;37.760;2024-02-23T03:42:34;26.13;;;13.13;;
79009;SDS011;73031;44.726;37.760;2024-02-23T03:43:35;24.42;;;12.88;;
79009;SDS011;73031;44.726;37.760;2024-02-23T03:44:38;26.27;;;13.45;;
79009;SDS011;73031;44.726;37.760;2024-02-23T03:45:42;25.42;;;12.80;;
79009;SDS011;73031;44.726;37.760;2024-02-23T03:46:44;32.33;;;14.80;;
79009;SDS011;73031;44.726;37.760;2024-02-23T03:47:45;39.03;;;17.70;;
79009;SDS011;73031;44.726;37.760;2024-02-23T03:48:46;47.15;;;23.75;;
79009;SDS011;73031;44.726;37.760;2024-02-23T03:49:48;32.75;;;17.67;;
79009;SDS011;73031;44.726;37.760;2024-02-23T03:50:49;35.80;;;17.70;;
79009;SDS011;73031;44.726;37.760;2024-02-23T03:51:50;30.95;;;16.00;;
79009;SDS011;73031;44.726;37.760;2024-02-23T03:52:51;36.85;;;17.55;;
79009;SDS011;73031;44.726;37.760;2024-02-23T03:53:53;41.50;;;20.02;;
79009;SDS011;73031;44.726;37.760;2024-02-23T03:54:55;31.15;;;15.65;;
79009;SDS011;73031;44.726;37.760;2024-02-23T03:55:59;30.60;;;15.82;;
79009;SDS011;73031;44.726;37.760;2024-02-23T03:57:00;40.75;;;18.55;;
79009;SDS011;73031;44.726;37.760;2024-02-23T03:58:02;48.80;;;24.73;;
79009;SDS011;73031;44.726;37.760;2024-02-23T03:59:03;46.20;;;22.80;;
79009;SDS011;73031;44.726;37.760;2024-02-23T04:00:05;47.20;;;23.00;;
79009;SDS011;73031;44.726;37.760;2024-02-23T04:01:08;68.53;;;31.13;;
79009;SDS011;73031;44.726;37.760;2024-02-23T04:02:10;106.15;;;46.80;;
79009;SDS011;73031;44.726;37.760;2024-02-23T04:03:11;52.20;;;25.40;;
79009;SDS011;73031;44.726;37.760;2024-02-23T04:04:13;36.03;;;18.02;;
79009;SDS011;73031;44.726;37.760;2024-02-23T04:05:14;35.78;;;15.90;;
79009;SDS011;73031;44.726;37.760;2024-02-23T04:06:16;31.33;;;15.40;;
79009;SDS011;73031;44.726;37.760;2024-02-23T04:07:18;39.83;;;17.15;;
79009;SDS011;73031;44.726;37.760;2024-02-23T04:08:19;29.98;;;15.48;;
79009;SDS011;73031;44.726;37.760;2024-02-23T04:09:21;31.10;;;15.23;;
79009;SDS011;73031;44.726;37.760;2024-02-23T04:10:22;28.95;;;14.43;;
79009;SDS011;73031;44.726;37.760;2024-02-23T04:11:23;31.30;;;16.55;;
79009;SDS011;73031;44.726;37.760;2024-02-23T04:12:24;34.42;;;17.25;;
79009;SDS011;73031;44.726;37.760;2024-02-23T04:13:26;34.03;;;16.40;;
79009;SDS011;73031;44.726;37.760;2024-02-23T04:14:27;36.72;;;17.05;;
79009;SDS011;73031;44.726;37.760;2024-02-23T04:15:28;35.17;;;17.27;;
79009;SDS011;73031;44.726;37.760;2024-02-23T04:16:30;34.95;;;16.15;;
79009;SDS011;73031;44.726;37.760;2024-02-23T04:17:31;30.98;;;13.48;;
79009;SDS011;73031;44.726;37.760;2024-02-23T04:18:32;33.28;;;14.80;;
79009;SDS011;73031;44.726;37.760;2024-02-23T04:19:34;28.23;;;14.52;;
79009;SDS011;73031;44.726;37.760;2024-02-23T04:20:35;31.65;;;15.32;;
79009;SDS011;73031;44.726;37.760;2024-02-23T04:21:37;33.58;;;15.98;;
79009;SDS011;73031;44.726;37.760;2024-02-23T04:22:38;32.78;;;15.07;;
79009;SDS011;73031;44.726;37.760;2024-02-23T04:23:40;32.13;;;14.88;;
79009;SDS011;73031;44.726;37.760;2024-02-23T04:24:41;34.88;;;18.30;;
79009;SDS011;73031;44.726;37.760;2024-02-23T04:25:42;41.35;;;21.50;;
79009;SDS011;73031;44.726;37.760;2024-02-23T04:26:43;48.35;;;25.55;;
79009;SDS011;73031;44.726;37.760;2024-02-23T04:27:45;96.10;;;46.10;;
79009;SDS011;73031;44.726;37.760;2024-02-23T04:28:46;55.67;;;28.73;;
79009;SDS011;73031;44.726;37.760;2024-02-23T04:29:47;40.63;;;22.05;;
79009;SDS011;73031;44.726;37.760;2024-02-23T04:30:49;37.80;;;18.02;;
79009;SDS011;73031;44.726;37.760;2024-02-23T04:31:50;30.50;;;15.52;;
79009;SDS011;73031;44.726;37.760;2024-02-23T04:32:51;32.28;;;15.82;;
79009;SDS011;73031;44.726;37.760;2024-02-23T04:33:53;36.53;;;15.75;;
79009;SDS011;73031;44.726;37.760;2024-02-23T04:34:55;31.95;;;16.92;;
79009;SDS011;73031;44.726;37.760;2024-02-23T04:35:56;35.95;;;16.00;;
79009;SDS011;73031;44.726;37.760;2024-02-23T04:36:58;39.28;;;17.98;;
79009;SDS011;73031;44.726;37.760;2024-02-23T04:37:59;37.05;;;17.92;;
79009;SDS011;73031;44.726;37.760;2024-02-23T04:39:01;31.50;;;15.55;;
79009;SDS011;73031;44.726;37.760;2024-02-23T04:40:02;34.33;;;17.42;;
79009;SDS011;73031;44.726;37.760;2024-02-23T04:41:06;40.83;;;19.30;;
79009;SDS011;73031;44.726;37.760;2024-02-23T04:42:07;37.88;;;16.58;;
79009;SDS011;73031;44.726;37.760;2024-02-23T04:43:12;42.45;;;16.88;;
79009;SDS011;73031;44.726;37.760;2024-02-23T04:44:13;34.75;;;16.23;;
79009;SDS011;73031;44.726;37.760;2024-02-23T04:45:14;37.30;;;17.45;;
79009;SDS011;73031;44.726;37.760;2024-02-23T04:46:15;31.08;;;17.05;;
79009;SDS011;73031;44.726;37.760;2024-02-23T04:47:17;35.67;;;17.60;;
79009;SDS011;73031;44.726;37.760;2024-02-23T04:48:18;40.50;;;19.33;;
79009;SDS011;73031;44.726;37.760;2024-02-23T04:49:19;44.40;;;19.45;;
79009;SDS011;73031;44.726;37.760;2024-02-23T04:50:21;36.22;;;17.05;;
79009;SDS011;73031;44.726;37.760;2024-02-23T04:51:22;35.95;;;17.80;;
79009;SDS011;73031;44.726;37.760;2024-02-23T04:52:23;39.50;;;19.23;;
79009;SDS011;73031;44.726;37.760;2024-02-23T04:53:25;33.05;;;16.52;;
79009;SDS011;73031;44.726;37.760;2024-02-23T04:54:26;39.63;;;18.95;;
79009;SDS011;73031;44.726;37.760;2024-02-23T04:55:27;40.58;;;17.95;;
79009;SDS011;73031;44.726;37.760;2024-02-23T04:56:29;37.15;;;18.75;;
79009;SDS011;73031;44.726;37.760;2024-02-23T04:57:31;38.67;;;18.88;;
79009;SDS011;73031;44.726;37.760;2024-02-23T04:58:33;38.20;;;18.52;;
79009;SDS011;73031;44.726;37.760;2024-02-23T04:59:34;39.45;;;17.92;;
79009;SDS011;73031;44.726;37.760;2024-02-23T05:00:35;36.67;;;18.40;;
79009;SDS011;73031;44.726;37.760;2024-02-23T05:01:37;37.88;;;17.33;;
79009;SDS011;73031;44.726;37.760;2024-02-23T05:02:38;35.47;;;17.13;;
79009;SDS011;73031;44.726;37.760;2024-02-23T05:03:40;34.75;;;15.82;;
79009;SDS011;73031;44.726;37.760;2024-02-23T05:04:41;34.97;;;17.27;;
79009;SDS011;73031;44.726;37.760;2024-02-23T05:05:42;31.70;;;16.60;;
79009;SDS011;73031;44.726;37.760;2024-02-23T05:06:44;45.05;;;23.42;;
79009;SDS011;73031;44.726;37.760;2024-02-23T05:07:45;50.50;;;25.30;;
79009;SDS011;73031;44.726;37.760;2024-02-23T05:08:47;47.13;;;24.33;;
79009;SDS011;73031;44.726;37.760;2024-02-23T05:09:48;45.13;;;21.83;;
79009;SDS011;73031;44.726;37.760;2024-02-23T05:10:52;46.17;;;23.95;;
79009;SDS011;73031;44.726;37.760;2024-02-23T05:11:54;49.53;;;23.08;;
79009;SDS011;73031;44.726;37.760;2024-02-23T05:12:55;39.03;;;22.35;;
79009;SDS011;73031;44.726;37.760;2024-02-23T05:13:57;42.05;;;21.50;;
79009;SDS011;73031;44.726;37.760;2024-02-23T05:14:58;38.85;;;21.27;;
79009;SDS011;73031;44.726;37.760;2024-02-23T05:15:59;45.95;;;20.95;;
79009;SDS011;73031;44.726;37.760;2024-02-23T05:17:00;41.15;;;22.23;;
79009;SDS011;73031;44.726;37.760;2024-02-23T05:18:02;42.22;;;20.98;;
79009;SDS011;73031;44.726;37.760;2024-02-23T05:19:04;41.05;;;22.27;;
79009;SDS011;73031;44.726;37.760;2024-02-23T05:20:05;39.88;;;20.33;;
79009;SDS011;73031;44.726;37.760;2024-02-23T05:21:11;35.72;;;18.45;;
79009;SDS011;73031;44.726;37.760;2024-02-23T05:22:12;39.13;;;19.83;;
79009;SDS011;73031;44.726;37.760;2024-02-23T05:23:14;37.58;;;18.95;;
79009;SDS011;73031;44.726;37.760;2024-02-23T05:24:16;34.25;;;17.13;;
79009;SDS011;73031;44.726;37.760;2024-02-23T05:25:18;33.10;;;18.15;;
79009;SDS011;73031;44.726;37.760;2024-02-23T05:26:19;37.75;;;18.48;;
79009;SDS011;73031;44.726;37.760;2024-02-23T05:27:21;34.47;;;18.08;;
79009;SDS011;73031;44.726;37.760;2024-02-23T05:28:22;34.58;;;17.13;;
79009;SDS011;73031;44.726;37.760;2024-02-23T05:29:24;35.22;;;16.83;;
79009;SDS011;73031;44.726;37.760;2024-02-23T05:30:25;25.98;;;15.77;;
79009;SDS011;73031;44.726;37.760;2024-02-23T05:31:49;35.88;;;18.77;;
79009;SDS011;73031;44.726;37.760;2024-02-23T05:32:53;31.60;;;17.55;;
79009;SDS011;73031;44.726;37.760;2024-02-23T05:33:54;31.17;;;16.88;;
79009;SDS011;73031;44.726;37.760;2024-02-23T05:34:56;28.15;;;15.73;;
79009;SDS011;73031;44.726;37.760;2024-02-23T05:35:57;34.92;;;16.70;;
79009;SDS011;73031;44.726;37.760;2024-02-23T05:36:59;37.45;;;17.35;;
79009;SDS011;73031;44.726;37.760;2024-02-23T05:38:00;38.25;;;17.25;;
79009;SDS011;73031;44.726;37.760;2024-02-23T05:39:01;32.08;;;17.60;;
79009;SDS011;73031;44.726;37.760;2024-02-23T05:40:03;33.85;;;17.13;;
79009;SDS011;73031;44.726;37.760;2024-02-23T05:41:13;33.13;;;16.90;;
79009;SDS011;73031;44.726;37.760;2024-02-23T05:42:14;30.00;;;15.27;;
79009;SDS011;73031;44.726;37.760;2024-02-23T05:43:16;29.52;;;15.15;;
79009;SDS011;73031;44.726;37.760;2024-02-23T05:44:17;31.52;;;16.25;;
79009;SDS011;73031;44.726;37.760;2024-02-23T05:45:19;31.50;;;16.83;;
79009;SDS011;73031;44.726;37.760;2024-02-23T05:46:20;34.47;;;16.83;;
79009;SDS011;73031;44.726;37.760;2024-02-23T05:47:22;35.83;;;16.30;;
79009;SDS011;73031;44.726;37.760;2024-02-23T05:48:23;37.38;;;16.98;;
79009;SDS011;73031;44.726;37.760;2024-02-23T05:49:24;36.65;;;16.35;;
79009;SDS011;73031;44.726;37.760;2024-02-23T05:50:26;40.15;;;16.27;;
79009;SDS011;73031;44.726;37.760;2024-02-23T05:51:30;33.05;;;16.25;;
79009;SDS011;73031;44.726;37.760;2024-02-23T05:52:32;36.38;;;15.88;;
79009;SDS011;73031;44.726;37.760;2024-02-23T05:53:33;37.38;;;16.58;;
79009;SDS011;73031;44.726;37.760;2024-02-23T05:54:35;37.63;;;16.95;;
79009;SDS011;73031;44.726;37.760;2024-02-23T05:55:36;36.85;;;16.17;;